createdAt,value
2022-10-04T00:03:46.176Z,100.00
2022-10-04T00:09:14.255Z,100.00
2022-10-04T00:14:38.370Z,100.00
2022-10-04T00:20:00.323Z,100.00
2022-10-04T00:25:34.322Z,100.00
2022-10-04T00:31:14.340Z,100.00
2022-10-04T00:36:45.508Z,100.00
2022-10-04T00:42:44.847Z,100.00
2022-10-04T00:48:24.861Z,100.00
2022-10-04T00:54:13.023Z,100.00
2022-10-04T00:59:39.973Z,100.00
2022-10-04T01:05:05.457Z,100.00
2022-10-04T01:10:31.837Z,100.00
2022-10-04T01:16:03.652Z,100.00
2022-10-04T01:21:31.009Z,100.00
2022-10-04T01:26:52.789Z,100.00
2022-10-04T01:32:14.681Z,100.00
2022-10-04T01:37:37.364Z,100.00
2022-10-04T01:43:04.763Z,100.00
2022-10-04T01:48:33.238Z,100.00
2022-10-04T01:54:08.621Z,100.00
2022-10-04T01:59:46.719Z,100.00
2022-10-04T02:05:12.782Z,100.00
2022-10-04T02:10:41.028Z,100.00
2022-10-04T02:16:10.480Z,100.00
2022-10-04T02:21:32.529Z,100.00
2022-10-04T02:26:54.389Z,100.00
2022-10-04T02:32:16.409Z,100.00
2022-10-04T02:37:38.971Z,100.00
2022-10-04T02:43:09.141Z,100.00
2022-10-04T02:48:46.814Z,100.00
2022-10-04T02:55:01.120Z,100.00
2022-10-04T03:00:26.293Z,100.00
2022-10-04T03:06:11.771Z,100.00
2022-10-04T03:11:36.766Z,100.00
2022-10-04T03:17:01.710Z,100.00
2022-10-04T03:22:23.943Z,100.00
2022-10-04T03:27:46.067Z,100.00
2022-10-04T03:33:08.017Z,100.00
2022-10-04T03:38:34.563Z,100.00
2022-10-04T03:43:58.574Z,100.00
2022-10-04T03:49:32.796Z,100.00
2022-10-04T03:54:59.341Z,100.00
2022-10-04T04:00:21.149Z,100.00
2022-10-04T04:05:57.953Z,100.00
2022-10-04T04:11:26.172Z,100.00
2022-10-04T04:16:48.837Z,100.00
2022-10-04T04:22:18.389Z,100.00
2022-10-04T04:27:43.690Z,100.00
2022-10-04T04:33:20.274Z,100.00
2022-10-04T04:38:43.979Z,100.00
2022-10-04T04:44:17.978Z,100.00
2022-10-04T04:49:39.939Z,100.00
2022-10-04T04:55:02.654Z,100.00
2022-10-04T05:00:30.928Z,100.00
2022-10-04T05:05:53.699Z,100.00
2022-10-04T05:11:16.031Z,100.00
2022-10-04T05:16:40.832Z,100.00
2022-10-04T05:22:09.110Z,100.00
2022-10-04T05:27:37.901Z,100.00
2022-10-04T05:33:14.668Z,100.00
2022-10-04T05:38:59.440Z,100.00
2022-10-04T05:44:31.430Z,100.00
2022-10-04T05:49:59.258Z,97.76
2022-10-04T05:55:33.091Z,100.00
2022-10-04T06:01:16.203Z,100.00
2022-10-04T06:06:50.444Z,100.00
2022-10-04T06:12:25.332Z,100.00
2022-10-04T06:18:17.656Z,100.00
2022-10-04T06:24:07.229Z,95.60
2022-10-04T06:29:36.739Z,96.08
2022-10-04T06:35:25.185Z,93.91
2022-10-04T06:41:00.494Z,94.67
2022-10-04T06:46:35.327Z,96.32
2022-10-04T06:52:16.715Z,96.38
2022-10-04T06:57:54.010Z,97.39
2022-10-04T07:03:28.258Z,98.97
2022-10-04T07:08:52.538Z,97.98
2022-10-04T07:14:26.889Z,97.43
2022-10-04T07:19:51.929Z,96.78
2022-10-04T07:25:56.398Z,96.68
2022-10-04T07:31:28.426Z,83.94
2022-10-04T07:36:55.074Z,80.08
2022-10-04T07:42:32.099Z,70.38
2022-10-04T07:48:13.740Z,71.66
2022-10-04T07:53:59.063Z,68.19
2022-10-04T07:59:32.693Z,49.14
2022-10-04T08:05:16.081Z,58.43
2022-10-04T08:10:41.568Z,64.97
2022-10-04T08:16:13.536Z,63.02
2022-10-04T08:21:48.778Z,60.01
2022-10-04T08:27:21.346Z,60.00
2022-10-04T08:33:13.221Z,60.63
2022-10-04T08:38:49.977Z,57.19
2022-10-04T08:44:34.396Z,54.73
2022-10-04T08:50:01.950Z,56.28
2022-10-04T08:55:48.226Z,62.23
2022-10-04T09:01:24.737Z,67.68
2022-10-04T09:07:04.224Z,65.21
2022-10-04T09:12:43.471Z,65.24
2022-10-04T09:18:45.826Z,62.75
2022-10-04T09:24:38.569Z,64.17
2022-10-04T09:30:15.436Z,63.56
2022-10-04T09:36:09.016Z,65.13
2022-10-04T09:42:01.965Z,66.59
2022-10-04T09:47:26.793Z,68.54
2022-10-04T09:53:07.278Z,70.02
2022-10-04T09:58:38.755Z,70.73
2022-10-04T10:04:25.664Z,70.11
2022-10-04T10:10:06.039Z,69.50
2022-10-04T10:15:41.462Z,68.89
2022-10-04T10:21:20.094Z,68.33
2022-10-04T10:27:09.104Z,65.91
2022-10-04T10:33:11.757Z,62.33
2022-10-04T10:39:02.835Z,62.25
2022-10-04T10:44:50.274Z,63.38
2022-10-04T10:50:33.678Z,62.85
2022-10-04T10:56:16.710Z,61.50
2022-10-04T11:02:07.797Z,56.47
2022-10-04T11:07:42.719Z,58.53
2022-10-04T11:13:18.245Z,57.97
2022-10-04T11:19:11.813Z,57.63
2022-10-04T11:24:46.831Z,57.46
2022-10-04T11:30:38.743Z,59.31
2022-10-04T11:36:18.504Z,60.65
2022-10-04T11:41:51.103Z,58.98
2022-10-04T11:47:12.870Z,60.92
2022-10-04T11:52:52.957Z,59.89
2022-10-04T11:58:30.005Z,59.80
2022-10-04T12:04:01.006Z,61.04
2022-10-04T12:10:06.107Z,60.70
2022-10-04T12:15:39.974Z,61.82
2022-10-04T12:21:21.881Z,59.96
2022-10-04T12:27:02.138Z,60.12
2022-10-04T12:32:52.215Z,61.57
2022-10-04T12:38:39.057Z,61.78
2022-10-04T12:44:18.307Z,62.60
2022-10-04T12:50:16.928Z,61.73
2022-10-04T12:56:01.718Z,62.42
2022-10-04T13:01:50.435Z,62.40
2022-10-04T13:07:24.508Z,64.34
2022-10-04T13:13:05.614Z,64.84
2022-10-04T13:18:30.112Z,63.27
2022-10-04T13:24:07.537Z,63.89
2022-10-04T13:29:41.095Z,63.87
2022-10-04T13:35:21.068Z,63.95
2022-10-04T13:40:49.024Z,65.17
2022-10-04T13:46:34.678Z,65.00
2022-10-04T13:52:19.833Z,64.50
2022-10-04T13:58:06.327Z,63.52
2022-10-04T14:04:06.774Z,65.12
2022-10-04T14:09:39.092Z,65.50
2022-10-04T14:15:24.742Z,65.37
2022-10-04T14:21:08.439Z,64.93
2022-10-04T14:26:33.122Z,65.30
2022-10-04T14:32:33.314Z,65.83
2022-10-04T14:38:34.145Z,66.16
2022-10-04T14:44:08.025Z,65.96
2022-10-04T14:49:29.973Z,65.99
2022-10-04T14:55:08.080Z,67.30
2022-10-04T15:01:11.149Z,67.77
2022-10-04T15:06:41.013Z,69.08
2022-10-04T15:12:45.874Z,70.15
2022-10-04T15:18:25.792Z,70.51
2022-10-04T15:24:17.223Z,71.27
2022-10-04T15:29:58.031Z,71.78
2022-10-04T15:35:34.358Z,72.14
2022-10-04T15:41:06.932Z,73.14
2022-10-04T15:46:52.368Z,73.27
2022-10-04T15:53:00.654Z,74.97
2022-10-04T15:58:31.514Z,75.33
2022-10-04T16:04:24.231Z,76.93
2022-10-04T16:10:10.831Z,77.30
2022-10-04T16:15:36.330Z,77.42
2022-10-04T16:21:37.719Z,79.57
2022-10-04T16:27:24.005Z,78.95
2022-10-04T16:32:59.122Z,79.50
2022-10-04T16:38:26.769Z,79.29
2022-10-04T16:43:54.033Z,80.56
2022-10-04T16:49:28.542Z,81.29
2022-10-04T16:55:10.037Z,81.89
2022-10-04T17:00:35.678Z,83.72
2022-10-04T17:06:14.026Z,84.30
2022-10-04T17:11:43.734Z,85.16
2022-10-04T17:17:28.560Z,86.18
2022-10-04T17:23:22.093Z,87.06
2022-10-04T17:28:51.798Z,87.74
2022-10-04T17:34:22.647Z,88.94
2022-10-04T17:39:57.544Z,89.08
2022-10-04T17:45:32.492Z,90.30
2022-10-04T17:51:23.010Z,90.40
2022-10-04T17:57:04.130Z,90.36
2022-10-04T18:02:50.446Z,90.88
2022-10-04T18:08:44.161Z,92.26
2022-10-04T18:14:20.600Z,91.54
2022-10-04T18:19:48.436Z,91.67
2022-10-04T18:25:20.125Z,92.45
2022-10-04T18:30:59.250Z,92.11
2022-10-04T18:36:28.519Z,92.86
2022-10-04T18:42:29.145Z,93.64
2022-10-04T18:47:54.388Z,93.19
2022-10-04T18:53:47.741Z,94.20
2022-10-04T18:59:34.700Z,94.43
2022-10-04T19:05:41.894Z,94.54
2022-10-04T19:11:13.850Z,94.75
2022-10-04T19:16:35.765Z,95.55
2022-10-04T19:22:08.232Z,95.50
2022-10-04T19:27:42.864Z,95.81
2022-10-04T19:33:07.363Z,95.75
2022-10-04T19:38:51.353Z,95.95
2022-10-04T19:44:31.732Z,97.39
2022-10-04T19:49:58.119Z,97.31
2022-10-04T19:55:29.622Z,96.97
2022-10-04T20:00:51.511Z,98.05
2022-10-04T20:06:21.337Z,98.25
2022-10-04T20:11:51.511Z,98.13
2022-10-04T20:17:30.498Z,98.26
2022-10-04T20:22:52.302Z,98.81
2022-10-04T20:28:26.526Z,98.36
2022-10-04T20:33:49.831Z,98.96
2022-10-04T20:39:40.480Z,99.33
2022-10-04T20:45:11.015Z,99.88
2022-10-04T20:50:40.389Z,99.52
2022-10-04T20:56:14.256Z,100.00
2022-10-04T21:01:36.941Z,100.00
2022-10-04T21:07:01.286Z,100.00
2022-10-04T21:12:35.145Z,100.00
2022-10-04T21:18:02.946Z,100.00
2022-10-04T21:23:35.447Z,100.00
2022-10-04T21:28:58.298Z,100.00
2022-10-04T21:34:41.007Z,100.00
2022-10-04T21:40:03.572Z,100.00
2022-10-04T21:45:25.467Z,100.00
2022-10-04T21:50:48.021Z,100.00
2022-10-04T21:56:09.870Z,100.00
2022-10-04T22:01:31.746Z,100.00
2022-10-04T22:06:53.618Z,100.00
2022-10-04T22:12:15.472Z,100.00
2022-10-04T22:17:37.391Z,100.00
2022-10-04T22:22:59.455Z,100.00
2022-10-04T22:28:31.038Z,100.00
2022-10-04T22:33:53.472Z,100.00
2022-10-04T22:39:17.910Z,100.00
2022-10-04T22:44:40.000Z,100.00
2022-10-04T22:50:01.828Z,100.00
2022-10-04T22:55:23.852Z,100.00
2022-10-04T23:00:45.771Z,100.00
2022-10-04T23:06:07.910Z,100.00
2022-10-04T23:11:32.830Z,100.00
2022-10-04T23:16:54.699Z,100.00
2022-10-04T23:22:21.476Z,100.00
2022-10-04T23:27:43.644Z,100.00
2022-10-04T23:33:21.091Z,100.00
2022-10-04T23:38:49.380Z,100.00
2022-10-04T23:44:15.553Z,100.00
2022-10-04T23:49:37.367Z,100.00
2022-10-04T23:54:59.205Z,100.00
